sensor_id;sensor_type;location;lat;lon;timestamp;pressure;altitude;pressure_sealevel;temperature;humidity
50268;BME280;36153;50.960;6.220;2023-07-16T00:00:55;99990.50;;;23.16;56.75
50268;BME280;36153;50.960;6.220;2023-07-16T00:03:55;99990.34;;;23.19;56.52
50268;BME280;36153;50.960;6.220;2023-07-16T00:06:55;99986.13;;;23.32;56.15
50268;BME280;36153;50.960;6.220;2023-07-16T00:09:56;99994.41;;;23.26;57.11
50268;BME280;36153;50.960;6.220;2023-07-16T00:12:56;100000.22;;;23.34;56.50
50268;BME280;36153;50.960;6.220;2023-07-16T00:15:56;100003.78;;;23.33;56.81
50268;BME280;36153;50.960;6.220;2023-07-16T00:18:57;100001.47;;;23.27;56.72
50268;BME280;36153;50.960;6.220;2023-07-16T00:21:57;99993.63;;;23.24;57.26
50268;BME280;36153;50.960;6.220;2023-07-16T00:24:57;100004.63;;;23.16;56.84
50268;BME280;36153;50.960;6.220;2023-07-16T00:27:58;99999.56;;;23.10;57.83
50268;BME280;36153;50.960;6.220;2023-07-16T00:30:58;99998.88;;;23.07;57.88
50268;BME280;36153;50.960;6.220;2023-07-16T00:33:58;100000.72;;;23.05;57.64
50268;BME280;36153;50.960;6.220;2023-07-16T00:36:59;99994.25;;;23.10;57.14
50268;BME280;36153;50.960;6.220;2023-07-16T00:40:02;99994.19;;;23.13;57.19
50268;BME280;36153;50.960;6.220;2023-07-16T00:43:02;100003.38;;;23.05;57.38
50268;BME280;36153;50.960;6.220;2023-07-16T00:46:02;100004.63;;;22.97;57.23
50268;BME280;36153;50.960;6.220;2023-07-16T00:49:03;100001.34;;;22.92;57.39
50268;BME280;36153;50.960;6.220;2023-07-16T00:52:04;100000.16;;;23.17;56.82
50268;BME280;36153;50.960;6.220;2023-07-16T00:55:06;100002.53;;;23.04;57.03
50268;BME280;36153;50.960;6.220;2023-07-16T00:58:07;100006.94;;;23.05;57.37
50268;BME280;36153;50.960;6.220;2023-07-16T01:01:07;100004.63;;;22.97;56.85
50268;BME280;36153;50.960;6.220;2023-07-16T01:04:08;100003.63;;;23.00;56.71
50268;BME280;36153;50.960;6.220;2023-07-16T01:07:11;100001.91;;;22.99;56.78
50268;BME280;36153;50.960;6.220;2023-07-16T01:10:11;100007.19;;;22.99;56.57
50268;BME280;36153;50.960;6.220;2023-07-16T01:13:12;100010.94;;;23.14;55.43
50268;BME280;36153;50.960;6.220;2023-07-16T01:16:24;100014.66;;;23.10;55.81
50268;BME280;36153;50.960;6.220;2023-07-16T01:19:25;100009.25;;;22.94;56.11
50268;BME280;36153;50.960;6.220;2023-07-16T01:32:15;100017.97;;;22.77;56.22
50268;BME280;36153;50.960;6.220;2023-07-16T01:35:16;100015.81;;;22.85;55.72
50268;BME280;36153;50.960;6.220;2023-07-16T01:38:16;100011.91;;;22.75;55.55
50268;BME280;36153;50.960;6.220;2023-07-16T01:41:18;100021.69;;;22.73;55.61
50268;BME280;36153;50.960;6.220;2023-07-16T01:44:19;100025.44;;;22.68;55.61
50268;BME280;36153;50.960;6.220;2023-07-16T01:47:25;100028.59;;;22.77;55.42
50268;BME280;36153;50.960;6.220;2023-07-16T01:50:31;100028.22;;;22.65;55.48
50268;BME280;36153;50.960;6.220;2023-07-16T01:53:32;100033.03;;;22.76;54.88
50268;BME280;36153;50.960;6.220;2023-07-16T01:56:33;100029.03;;;22.67;54.67
50268;BME280;36153;50.960;6.220;2023-07-16T01:59:33;100030.63;;;22.72;54.29
50268;BME280;36153;50.960;6.220;2023-07-16T02:02:34;100042.56;;;22.61;54.35
50268;BME280;36153;50.960;6.220;2023-07-16T02:05:34;100045.38;;;22.58;54.23
50268;BME280;36153;50.960;6.220;2023-07-16T02:08:34;100046.28;;;22.57;54.22
50268;BME280;36153;50.960;6.220;2023-07-16T02:11:35;100045.06;;;22.45;54.46
50268;BME280;36153;50.960;6.220;2023-07-16T02:14:35;100044.19;;;22.45;53.94
50268;BME280;36153;50.960;6.220;2023-07-16T02:17:35;100047.97;;;22.39;53.73
50268;BME280;36153;50.960;6.220;2023-07-16T02:20:35;100055.09;;;22.39;53.46
50268;BME280;36153;50.960;6.220;2023-07-16T02:23:36;100056.81;;;22.40;52.71
50268;BME280;36153;50.960;6.220;2023-07-16T02:26:36;100063.41;;;22.50;52.66
50268;BME280;36153;50.960;6.220;2023-07-16T02:29:36;100060.41;;;22.39;52.73
50268;BME280;36153;50.960;6.220;2023-07-16T02:32:37;100079.88;;;22.38;52.85
50268;BME280;36153;50.960;6.220;2023-07-16T02:35:37;100077.63;;;22.28;52.94
50268;BME280;36153;50.960;6.220;2023-07-16T02:38:37;100079.22;;;22.12;53.18
50268;BME280;36153;50.960;6.220;2023-07-16T02:41:38;100085.81;;;22.22;52.50
50268;BME280;36153;50.960;6.220;2023-07-16T02:44:38;100089.81;;;22.12;52.88
50268;BME280;36153;50.960;6.220;2023-07-16T02:47:43;100087.47;;;22.04;53.13
50268;BME280;36153;50.960;6.220;2023-07-16T02:50:43;100095.25;;;22.09;52.85
50268;BME280;36153;50.960;6.220;2023-07-16T02:53:44;100101.72;;;22.22;52.42
50268;BME280;36153;50.960;6.220;2023-07-16T02:56:44;100093.38;;;22.11;52.32
50268;BME280;36153;50.960;6.220;2023-07-16T02:59:44;100105.72;;;22.12;52.18
50268;BME280;36153;50.960;6.220;2023-07-16T03:02:45;100104.50;;;21.98;52.32
50268;BME280;36153;50.960;6.220;2023-07-16T03:05:45;100111.47;;;22.01;52.02
50268;BME280;36153;50.960;6.220;2023-07-16T03:08:45;100110.56;;;22.02;52.18
50268;BME280;36153;50.960;6.220;2023-07-16T03:11:46;100110.28;;;22.08;51.93
50268;BME280;36153;50.960;6.220;2023-07-16T03:14:47;100114.88;;;22.05;51.91
50268;BME280;36153;50.960;6.220;2023-07-16T03:17:47;100115.25;;;21.95;51.78
50268;BME280;36153;50.960;6.220;2023-07-16T03:20:47;100117.06;;;21.93;51.86
50268;BME280;36153;50.960;6.220;2023-07-16T03:23:48;100121.13;;;21.81;52.38
50268;BME280;36153;50.960;6.220;2023-07-16T03:26:48;100116.28;;;21.91;51.90
50268;BME280;36153;50.960;6.220;2023-07-16T03:29:48;100120.16;;;22.05;51.47
50268;BME280;36153;50.960;6.220;2023-07-16T03:32:49;100129.75;;;21.87;51.73
50268;BME280;36153;50.960;6.220;2023-07-16T03:35:49;100132.75;;;21.99;51.41
50268;BME280;36153;50.960;6.220;2023-07-16T03:38:49;100126.59;;;21.99;51.17
50268;BME280;36153;50.960;6.220;2023-07-16T03:41:50;100141.88;;;21.92;50.78
50268;BME280;36153;50.960;6.220;2023-07-16T03:44:50;100141.97;;;21.89;51.21
50268;BME280;36153;50.960;6.220;2023-07-16T03:47:50;100149.63;;;21.97;50.93
50268;BME280;36153;50.960;6.220;2023-07-16T03:50:51;100160.38;;;21.94;51.31
50268;BME280;36153;50.960;6.220;2023-07-16T03:53:51;100156.78;;;21.95;51.46
50268;BME280;36153;50.960;6.220;2023-07-16T03:56:51;100163.31;;;21.86;51.87
50268;BME280;36153;50.960;6.220;2023-07-16T03:59:52;100160.09;;;21.78;51.54
50268;BME280;36153;50.960;6.220;2023-07-16T04:02:52;100162.59;;;21.82;51.46
50268;BME280;36153;50.960;6.220;2023-07-16T04:06:04;100173.91;;;21.86;51.33
50268;BME280;36153;50.960;6.220;2023-07-16T04:09:04;100181.44;;;21.97;51.12
50268;BME280;36153;50.960;6.220;2023-07-16T04:12:05;100188.94;;;22.08;50.58
50268;BME280;36153;50.960;6.220;2023-07-16T04:15:08;100190.78;;;22.06;50.67
50268;BME280;36153;50.960;6.220;2023-07-16T04:18:10;100196.75;;;22.11;50.27
50268;BME280;36153;50.960;6.220;2023-07-16T04:21:10;100188.69;;;21.92;50.47
50268;BME280;36153;50.960;6.220;2023-07-16T04:24:10;100203.13;;;22.07;50.25
50268;BME280;36153;50.960;6.220;2023-07-16T04:27:11;100203.25;;;22.04;49.68
50268;BME280;36153;50.960;6.220;2023-07-16T04:30:11;100209.88;;;22.14;49.46
50268;BME280;36153;50.960;6.220;2023-07-16T04:33:11;100215.81;;;22.21;48.94
50268;BME280;36153;50.960;6.220;2023-07-16T04:36:12;100209.66;;;22.20;49.06
50268;BME280;36153;50.960;6.220;2023-07-16T04:39:13;100218.53;;;22.19;49.17
50268;BME280;36153;50.960;6.220;2023-07-16T04:42:13;100214.13;;;22.18;48.95
50268;BME280;36153;50.960;6.220;2023-07-16T04:45:13;100222.22;;;22.15;49.10
50268;BME280;36153;50.960;6.220;2023-07-16T04:48:14;100225.66;;;22.17;49.14
50268;BME280;36153;50.960;6.220;2023-07-16T04:51:14;100220.88;;;22.27;48.62
50268;BME280;36153;50.960;6.220;2023-07-16T04:54:15;100228.06;;;22.23;48.60
50268;BME280;36153;50.960;6.220;2023-07-16T04:57:15;100230.34;;;22.32;48.21
50268;BME280;36153;50.960;6.220;2023-07-16T05:00:15;100213.50;;;21.91;48.43
50268;BME280;36153;50.960;6.220;2023-07-16T05:03:16;100232.38;;;22.26;47.77
50268;BME280;36153;50.960;6.220;2023-07-16T05:06:16;100226.53;;;22.17;47.80
50268;BME280;36153;50.960;6.220;2023-07-16T05:09:16;100225.16;;;22.29;47.53
50268;BME280;36153;50.960;6.220;2023-07-16T05:12:16;100240.22;;;22.29;47.41
50268;BME280;36153;50.960;6.220;2023-07-16T05:15:17;100238.00;;;22.40;47.23
50268;BME280;36153;50.960;6.220;2023-07-16T05:18:17;100235.91;;;22.69;46.60
50268;BME280;36153;50.960;6.220;2023-07-16T05:21:17;100238.34;;;22.53;46.28
50268;BME280;36153;50.960;6.220;2023-07-16T05:24:18;100244.19;;;22.41;46.67
50268;BME280;36153;50.960;6.220;2023-07-16T05:27:18;100250.06;;;22.25;46.72
50268;BME280;36153;50.960;6.220;2023-07-16T05:30:19;100249.56;;;22.60;45.98
50268;BME280;36153;50.960;6.220;2023-07-16T05:33:19;100251.31;;;22.81;45.63
50268;BME280;36153;50.960;6.220;2023-07-16T05:36:19;100252.50;;;22.74;45.85
50268;BME280;36153;50.960;6.220;2023-07-16T05:39:21;100264.56;;;22.61;45.94
50268;BME280;36153;50.960;6.220;2023-07-16T05:42:22;100263.09;;;22.54;45.79
50268;BME280;36153;50.960;6.220;2023-07-16T05:45:22;100258.44;;;22.79;45.21
50268;BME280;36153;50.960;6.220;2023-07-16T05:48:24;100272.44;;;22.62;44.56
50268;BME280;36153;50.960;6.220;2023-07-16T05:51:24;100274.56;;;22.75;44.07
50268;BME280;36153;50.960;6.220;2023-07-16T05:54:25;100274.13;;;22.86;44.37
50268;BME280;36153;50.960;6.220;2023-07-16T05:57:25;100273.97;;;22.89;44.43
50268;BME280;36153;50.960;6.220;2023-07-16T06:00:25;100277.88;;;23.00;44.00
50268;BME280;36153;50.960;6.220;2023-07-16T06:03:26;100274.59;;;23.16;43.44
50268;BME280;36153;50.960;6.220;2023-07-16T06:06:27;100281.06;;;23.29;43.26
50268;BME280;36153;50.960;6.220;2023-07-16T06:09:28;100289.84;;;23.50;43.28
50268;BME280;36153;50.960;6.220;2023-07-16T06:12:28;100288.19;;;23.48;43.13
50268;BME280;36153;50.960;6.220;2023-07-16T06:15:29;100300.09;;;23.39;42.80
50268;BME280;36153;50.960;6.220;2023-07-16T06:18:29;100308.34;;;23.54;42.76
50268;BME280;36153;50.960;6.220;2023-07-16T06:21:30;100304.78;;;23.53;42.65
50268;BME280;36153;50.960;6.220;2023-07-16T06:24:30;100308.84;;;23.22;43.29
50268;BME280;36153;50.960;6.220;2023-07-16T06:27:30;100319.84;;;23.13;43.45
50268;BME280;36153;50.960;6.220;2023-07-16T06:30:31;100320.16;;;23.05;43.16
50268;BME280;36153;50.960;6.220;2023-07-16T06:33:32;100316.25;;;23.34;42.82
50268;BME280;36153;50.960;6.220;2023-07-16T06:36:33;100316.84;;;23.60;42.68
50268;BME280;36153;50.960;6.220;2023-07-16T06:39:33;100317.25;;;23.72;42.14
50268;BME280;36153;50.960;6.220;2023-07-16T06:42:34;100332.06;;;23.77;42.12
50268;BME280;36153;50.960;6.220;2023-07-16T06:45:34;100324.19;;;23.74;41.92
50268;BME280;36153;50.960;6.220;2023-07-16T06:48:34;100319.84;;;23.73;42.00
50268;BME280;36153;50.960;6.220;2023-07-16T06:51:35;100320.34;;;23.81;42.05
50268;BME280;36153;50.960;6.220;2023-07-16T06:54:35;100328.09;;;23.86;41.70
50268;BME280;36153;50.960;6.220;2023-07-16T06:57:36;100327.81;;;23.73;41.60
50268;BME280;36153;50.960;6.220;2023-07-16T07:00:36;100338.97;;;23.42;42.46
50268;BME280;36153;50.960;6.220;2023-07-16T07:03:36;100328.59;;;23.75;41.76
50268;BME280;36153;50.960;6.220;2023-07-16T07:06:37;100327.63;;;23.97;41.21
50268;BME280;36153;50.960;6.220;2023-07-16T07:09:37;100330.56;;;24.46;40.57
50268;BME280;36153;50.960;6.220;2023-07-16T07:12:38;100325.47;;;24.42;40.61
50268;BME280;36153;50.960;6.220;2023-07-16T07:15:39;100331.38;;;24.48;40.23
50268;BME280;36153;50.960;6.220;2023-07-16T07:18:39;100340.78;;;24.36;40.63
50268;BME280;36153;50.960;6.220;2023-07-16T07:21:39;100341.63;;;24.19;40.72
50268;BME280;36153;50.960;6.220;2023-07-16T07:24:40;100337.16;;;24.20;40.99
50268;BME280;36153;50.960;6.220;2023-07-16T07:27:40;100341.69;;;24.74;40.20
50268;BME280;36153;50.960;6.220;2023-07-16T07:30:40;100342.69;;;24.71;39.71
50268;BME280;36153;50.960;6.220;2023-07-16T07:33:41;100343.03;;;25.00;39.40
50268;BME280;36153;50.960;6.220;2023-07-16T07:36:41;100348.94;;;25.05;39.32
50268;BME280;36153;50.960;6.220;2023-07-16T07:39:42;100351.22;;;25.30;39.02
50268;BME280;36153;50.960;6.220;2023-07-16T07:42:42;100338.38;;;25.38;38.68
50268;BME280;36153;50.960;6.220;2023-07-16T07:45:43;100343.28;;;25.29;38.48
50268;BME280;36153;50.960;6.220;2023-07-16T07:48:43;100339.06;;;25.25;38.90
50268;BME280;36153;50.960;6.220;2023-07-16T07:51:44;100337.69;;;25.35;38.50
50268;BME280;36153;50.960;6.220;2023-07-16T07:54:44;100352.38;;;26.25;37.34
50268;BME280;36153;50.960;6.220;2023-07-16T07:57:44;100347.41;;;26.65;36.88
50268;BME280;36153;50.960;6.220;2023-07-16T08:00:45;100347.25;;;25.88;37.72
50268;BME280;36153;50.960;6.220;2023-07-16T08:03:45;100363.16;;;25.90;37.98
50268;BME280;36153;50.960;6.220;2023-07-16T08:06:45;100354.94;;;26.11;37.41
50268;BME280;36153;50.960;6.220;2023-07-16T08:09:46;100364.63;;;26.60;36.63
50268;BME280;36153;50.960;6.220;2023-07-16T08:12:47;100366.59;;;26.88;36.12
50268;BME280;36153;50.960;6.220;2023-07-16T08:15:47;100364.66;;;26.76;36.29
50268;BME280;36153;50.960;6.220;2023-07-16T08:18:48;100367.41;;;26.74;36.23
50268;BME280;36153;50.960;6.220;2023-07-16T08:21:48;100371.56;;;26.48;36.22
50268;BME280;36153;50.960;6.220;2023-07-16T08:24:48;100367.63;;;26.07;37.11
50268;BME280;36153;50.960;6.220;2023-07-16T08:27:49;100373.44;;;26.46;36.53
50268;BME280;36153;50.960;6.220;2023-07-16T08:30:49;100376.53;;;26.54;35.97
50268;BME280;36153;50.960;6.220;2023-07-16T08:33:49;100379.91;;;26.57;36.42
50268;BME280;36153;50.960;6.220;2023-07-16T08:36:50;100366.00;;;26.83;36.01
50268;BME280;36153;50.960;6.220;2023-07-16T08:39:53;100364.88;;;27.17;35.28
50268;BME280;36153;50.960;6.220;2023-07-16T08:42:54;100371.69;;;27.37;34.53
50268;BME280;36153;50.960;6.220;2023-07-16T08:45:56;100367.69;;;27.73;33.33
50268;BME280;36153;50.960;6.220;2023-07-16T08:48:56;100373.16;;;26.82;35.02
50268;BME280;36153;50.960;6.220;2023-07-16T08:51:57;100368.91;;;26.94;35.20
50268;BME280;36153;50.960;6.220;2023-07-16T08:54:57;100369.16;;;27.20;35.50
50268;BME280;36153;50.960;6.220;2023-07-16T08:57:58;100373.25;;;27.99;34.31
50268;BME280;36153;50.960;6.220;2023-07-16T09:00:59;100372.28;;;27.86;33.70
50268;BME280;36153;50.960;6.220;2023-07-16T09:04:00;100368.84;;;27.55;34.72
50268;BME280;36153;50.960;6.220;2023-07-16T09:07:01;100376.38;;;27.48;34.90
50268;BME280;36153;50.960;6.220;2023-07-16T09:10:01;100374.56;;;27.77;34.48
50268;BME280;36153;50.960;6.220;2023-07-16T09:13:02;100365.94;;;28.30;34.50
50268;BME280;36153;50.960;6.220;2023-07-16T09:16:03;100372.91;;;28.33;33.94
50268;BME280;36153;50.960;6.220;2023-07-16T09:19:09;100374.09;;;28.41;33.36
50268;BME280;36153;50.960;6.220;2023-07-16T09:22:10;100371.38;;;29.36;31.67
50268;BME280;36153;50.960;6.220;2023-07-16T09:25:11;100371.53;;;28.94;32.38
50268;BME280;36153;50.960;6.220;2023-07-16T09:28:12;100378.84;;;28.65;32.25
50268;BME280;36153;50.960;6.220;2023-07-16T09:31:12;100373.09;;;28.71;32.52
50268;BME280;36153;50.960;6.220;2023-07-16T09:34:12;100375.72;;;29.11;32.42
50268;BME280;36153;50.960;6.220;2023-07-16T09:37:13;100381.84;;;29.14;31.42
50268;BME280;36153;50.960;6.220;2023-07-16T09:40:13;100372.44;;;28.81;31.94
50268;BME280;36153;50.960;6.220;2023-07-16T09:43:13;100375.69;;;28.17;31.56
50268;BME280;36153;50.960;6.220;2023-07-16T09:46:14;100377.00;;;28.24;32.30
50268;BME280;36153;50.960;6.220;2023-07-16T09:49:15;100386.59;;;28.14;32.41
50268;BME280;36153;50.960;6.220;2023-07-16T09:52:15;100379.56;;;29.07;30.66
50268;BME280;36153;50.960;6.220;2023-07-16T09:55:16;100376.94;;;29.59;30.26
50268;BME280;36153;50.960;6.220;2023-07-16T09:58:19;100385.09;;;29.96;29.53
50268;BME280;36153;50.960;6.220;2023-07-16T10:01:22;100378.47;;;29.89;29.97
50268;BME280;36153;50.960;6.220;2023-07-16T10:04:23;100381.66;;;28.49;31.50
50268;BME280;36153;50.960;6.220;2023-07-16T10:07:24;100374.69;;;28.47;32.05
50268;BME280;36153;50.960;6.220;2023-07-16T10:10:42;100381.38;;;28.81;31.76
50268;BME280;36153;50.960;6.220;2023-07-16T10:13:43;100380.63;;;28.92;31.62
50268;BME280;36153;50.960;6.220;2023-07-16T10:16:48;100379.31;;;29.76;30.15
50268;BME280;36153;50.960;6.220;2023-07-16T10:22:54;100391.16;;;28.26;32.42
50268;BME280;36153;50.960;6.220;2023-07-16T10:26:01;100394.13;;;28.90;31.95
50268;BME280;36153;50.960;6.220;2023-07-16T10:29:05;100391.75;;;29.77;30.32
50268;BME280;36153;50.960;6.220;2023-07-16T10:32:06;100398.41;;;29.33;30.42
50268;BME280;36153;50.960;6.220;2023-07-16T10:35:08;100392.34;;;29.04;31.05
50268;BME280;36153;50.960;6.220;2023-07-16T10:38:09;100393.59;;;28.85;31.06
50268;BME280;36153;50.960;6.220;2023-07-16T10:41:09;100391.88;;;29.24;30.10
50268;BME280;36153;50.960;6.220;2023-07-16T10:44:13;100404.75;;;29.58;30.22
50268;BME280;36153;50.960;6.220;2023-07-16T10:47:31;100402.28;;;29.55;29.68
50268;BME280;36153;50.960;6.220;2023-07-16T10:50:32;100397.03;;;29.00;30.89
50268;BME280;36153;50.960;6.220;2023-07-16T10:53:33;100397.53;;;30.71;29.44
50268;BME280;36153;50.960;6.220;2023-07-16T10:56:35;100403.97;;;30.81;28.24
50268;BME280;36153;50.960;6.220;2023-07-16T10:59:38;100402.06;;;30.34;28.23
50268;BME280;36153;50.960;6.220;2023-07-16T11:02:40;100396.13;;;30.54;28.34
50268;BME280;36153;50.960;6.220;2023-07-16T11:05:40;100406.91;;;30.90;28.50
50268;BME280;36153;50.960;6.220;2023-07-16T11:08:41;100408.69;;;30.17;29.16
50268;BME280;36153;50.960;6.220;2023-07-16T11:11:41;100417.63;;;30.41;28.74
50268;BME280;36153;50.960;6.220;2023-07-16T11:14:49;100412.81;;;31.30;27.79
50268;BME280;36153;50.960;6.220;2023-07-16T11:17:49;100422.69;;;31.19;27.55
50268;BME280;36153;50.960;6.220;2023-07-16T11:20:52;100441.75;;;29.53;28.66
50268;BME280;36153;50.960;6.220;2023-07-16T11:23:53;100432.69;;;30.31;28.43
50268;BME280;36153;50.960;6.220;2023-07-16T11:26:54;100420.06;;;30.57;28.03
50268;BME280;36153;50.960;6.220;2023-07-16T11:29:58;100426.53;;;30.42;28.09
50268;BME280;36153;50.960;6.220;2023-07-16T11:32:59;100420.88;;;30.34;27.89
50268;BME280;36153;50.960;6.220;2023-07-16T11:36:01;100421.53;;;30.37;27.71
50268;BME280;36153;50.960;6.220;2023-07-16T11:39:02;100424.41;;;30.71;27.36
50268;BME280;36153;50.960;6.220;2023-07-16T11:42:04;100421.81;;;30.94;27.72
50268;BME280;36153;50.960;6.220;2023-07-16T11:45:14;100422.53;;;31.09;26.85
50268;BME280;36153;50.960;6.220;2023-07-16T11:48:14;100418.69;;;31.00;27.56
50268;BME280;36153;50.960;6.220;2023-07-16T11:51:15;100435.19;;;31.31;27.34
50268;BME280;36153;50.960;6.220;2023-07-16T11:54:15;100432.72;;;30.18;28.15
50268;BME280;36153;50.960;6.220;2023-07-16T11:57:16;100429.13;;;30.43;27.46
50268;BME280;36153;50.960;6.220;2023-07-16T12:00:16;100441.41;;;30.35;28.44
50268;BME280;36153;50.960;6.220;2023-07-16T12:03:17;100443.25;;;31.31;26.70
50268;BME280;36153;50.960;6.220;2023-07-16T12:06:18;100437.28;;;31.03;26.75
50268;BME280;36153;50.960;6.220;2023-07-16T12:09:18;100441.72;;;30.67;27.29
50268;BME280;36153;50.960;6.220;2023-07-16T12:12:18;100441.50;;;30.33;27.70
50268;BME280;36153;50.960;6.220;2023-07-16T12:15:19;100438.91;;;30.44;27.95
50268;BME280;36153;50.960;6.220;2023-07-16T12:18:19;100430.47;;;30.62;27.65
50268;BME280;36153;50.960;6.220;2023-07-16T12:21:19;100434.38;;;31.06;27.00
50268;BME280;36153;50.960;6.220;2023-07-16T12:24:20;100446.66;;;30.36;27.93
50268;BME280;36153;50.960;6.220;2023-07-16T12:27:20;100443.44;;;30.31;28.07
50268;BME280;36153;50.960;6.220;2023-07-16T12:30:21;100437.50;;;30.39;28.13
50268;BME280;36153;50.960;6.220;2023-07-16T12:33:21;100435.16;;;30.71;27.98
50268;BME280;36153;50.960;6.220;2023-07-16T12:36:21;100436.00;;;32.46;25.70
50268;BME280;36153;50.960;6.220;2023-07-16T12:39:22;100438.13;;;31.28;26.86
50268;BME280;36153;50.960;6.220;2023-07-16T12:42:22;100443.41;;;30.57;27.45
50268;BME280;36153;50.960;6.220;2023-07-16T12:45:23;100439.00;;;29.93;28.51
50268;BME280;36153;50.960;6.220;2023-07-16T12:48:23;100444.06;;;29.85;28.38
50268;BME280;36153;50.960;6.220;2023-07-16T12:51:23;100447.38;;;29.88;28.71
50268;BME280;36153;50.960;6.220;2023-07-16T12:54:24;100436.13;;;30.33;28.41
50268;BME280;36153;50.960;6.220;2023-07-16T12:57:24;100438.47;;;30.51;28.27
50268;BME280;36153;50.960;6.220;2023-07-16T13:00:25;100439.31;;;30.01;28.77
50268;BME280;36153;50.960;6.220;2023-07-16T13:03:25;100442.63;;;29.66;29.33
50268;BME280;36153;50.960;6.220;2023-07-16T13:06:25;100444.66;;;29.75;28.83
50268;BME280;36153;50.960;6.220;2023-07-16T13:09:26;100442.84;;;29.76;29.04
50268;BME280;36153;50.960;6.220;2023-07-16T13:12:26;100440.16;;;31.60;27.39
50268;BME280;36153;50.960;6.220;2023-07-16T13:15:26;100438.28;;;33.06;25.67
50268;BME280;36153;50.960;6.220;2023-07-16T13:18:27;100450.22;;;32.26;25.69
50268;BME280;36153;50.960;6.220;2023-07-16T13:21:27;100430.97;;;31.15;27.14
50268;BME280;36153;50.960;6.220;2023-07-16T13:24:27;100446.03;;;30.20;27.99
50268;BME280;36153;50.960;6.220;2023-07-16T13:27:28;100444.50;;;30.28;28.62
50268;BME280;36153;50.960;6.220;2023-07-16T13:30:28;100448.56;;;31.08;27.71
50268;BME280;36153;50.960;6.220;2023-07-16T13:33:29;100441.69;;;31.04;27.58
50268;BME280;36153;50.960;6.220;2023-07-16T13:36:29;100451.44;;;31.65;27.31
50268;BME280;36153;50.960;6.220;2023-07-16T13:39:30;100458.34;;;33.13;25.15
50268;BME280;36153;50.960;6.220;2023-07-16T13:42:30;100458.06;;;32.17;26.21
50268;BME280;36153;50.960;6.220;2023-07-16T13:45:31;100448.97;;;33.71;25.42
50268;BME280;36153;50.960;6.220;2023-07-16T13:48:33;100456.34;;;34.00;23.89
50268;BME280;36153;50.960;6.220;2023-07-16T13:51:34;100458.56;;;32.23;26.29
50268;BME280;36153;50.960;6.220;2023-07-16T13:54:34;100465.03;;;31.75;26.53
50268;BME280;36153;50.960;6.220;2023-07-16T13:57:34;100469.13;;;31.21;27.40
50268;BME280;36153;50.960;6.220;2023-07-16T14:00:35;100465.25;;;30.76;27.93
50268;BME280;36153;50.960;6.220;2023-07-16T14:03:35;100454.84;;;30.09;28.94
50268;BME280;36153;50.960;6.220;2023-07-16T14:06:35;100463.09;;;30.69;28.56
50268;BME280;36153;50.960;6.220;2023-07-16T14:09:37;100466.81;;;30.42;28.34
50268;BME280;36153;50.960;6.220;2023-07-16T14:12:37;100463.72;;;31.56;26.96
50268;BME280;36153;50.960;6.220;2023-07-16T14:15:38;100464.06;;;31.40;27.36
50268;BME280;36153;50.960;6.220;2023-07-16T14:18:38;100461.38;;;30.30;28.04
50268;BME280;36153;50.960;6.220;2023-07-16T14:21:39;100469.06;;;30.85;27.76
50268;BME280;36153;50.960;6.220;2023-07-16T14:24:40;100455.88;;;30.82;27.97
50268;BME280;36153;50.960;6.220;2023-07-16T14:27:40;100456.59;;;30.84;27.89
50268;BME280;36153;50.960;6.220;2023-07-16T14:30:40;100459.66;;;31.39;27.46
50268;BME280;36153;50.960;6.220;2023-07-16T14:33:41;100472.72;;;31.91;27.24
50268;BME280;36153;50.960;6.220;2023-07-16T14:36:41;100460.88;;;31.35;27.61
50268;BME280;36153;50.960;6.220;2023-07-16T14:39:42;100454.06;;;31.07;28.08
50268;BME280;36153;50.960;6.220;2023-07-16T14:42:42;100464.34;;;31.13;27.47
50268;BME280;36153;50.960;6.220;2023-07-16T14:45:43;100460.53;;;30.67;28.24
50268;BME280;36153;50.960;6.220;2023-07-16T14:48:43;100463.53;;;30.75;28.42
50268;BME280;36153;50.960;6.220;2023-07-16T14:51:44;100462.50;;;31.13;27.98
50268;BME280;36153;50.960;6.220;2023-07-16T14:54:44;100456.13;;;31.50;27.78
50268;BME280;36153;50.960;6.220;2023-07-16T14:57:45;100455.97;;;31.87;27.03
50268;BME280;36153;50.960;6.220;2023-07-16T15:00:45;100456.00;;;31.05;27.41
50268;BME280;36153;50.960;6.220;2023-07-16T15:03:46;100457.22;;;31.36;27.56
50268;BME280;36153;50.960;6.220;2023-07-16T15:06:46;100448.00;;;31.86;26.98
50268;BME280;36153;50.960;6.220;2023-07-16T15:09:46;100460.25;;;31.78;27.01
50268;BME280;36153;50.960;6.220;2023-07-16T15:12:47;100456.56;;;30.97;27.61
50268;BME280;36153;50.960;6.220;2023-07-16T15:15:51;100457.19;;;30.26;27.57
50268;BME280;36153;50.960;6.220;2023-07-16T15:18:51;100450.00;;;30.27;27.75
50268;BME280;36153;50.960;6.220;2023-07-16T15:21:52;100468.34;;;31.07;26.50
50268;BME280;36153;50.960;6.220;2023-07-16T15:24:52;100458.88;;;30.53;27.38
50268;BME280;36153;50.960;6.220;2023-07-16T15:27:53;100457.22;;;30.13;27.58
50268;BME280;36153;50.960;6.220;2023-07-16T15:30:53;100452.28;;;30.07;27.83
50268;BME280;36153;50.960;6.220;2023-07-16T15:33:54;100446.50;;;30.13;27.75
50268;BME280;36153;50.960;6.220;2023-07-16T15:36:55;100447.41;;;30.51;27.39
50268;BME280;36153;50.960;6.220;2023-07-16T15:39:55;100438.81;;;30.94;26.74
50268;BME280;36153;50.960;6.220;2023-07-16T15:42:57;100445.47;;;30.77;27.23
50268;BME280;36153;50.960;6.220;2023-07-16T15:45:58;100439.84;;;31.05;26.80
50268;BME280;36153;50.960;6.220;2023-07-16T15:48:58;100446.78;;;31.78;25.87
50268;BME280;36153;50.960;6.220;2023-07-16T15:51:58;100440.69;;;31.76;26.01
50268;BME280;36153;50.960;6.220;2023-07-16T15:54:59;100444.59;;;31.95;25.75
50268;BME280;36153;50.960;6.220;2023-07-16T15:58:00;100431.88;;;32.08;25.18